createdAt,value
2023-01-20T00:00:18.228Z,932
2023-01-20T00:02:18.058Z,971
2023-01-20T00:04:17.617Z,1081
2023-01-20T00:06:17.317Z,1057
2023-01-20T00:08:18.099Z,931
2023-01-20T00:10:17.713Z,937
2023-01-20T00:12:17.307Z,867
2023-01-20T00:14:18.059Z,895
2023-01-20T00:16:17.837Z,1009
2023-01-20T00:18:17.732Z,964
2023-01-20T00:20:17.333Z,867
2023-01-20T00:22:17.958Z,1092
2023-01-20T00:24:17.639Z,915
2023-01-20T00:26:17.208Z,1080
2023-01-20T00:28:17.938Z,1010
2023-01-20T00:30:17.696Z,954
2023-01-20T00:32:17.294Z,888
2023-01-20T00:34:17.948Z,936
2023-01-20T00:36:18.110Z,993
2023-01-20T00:38:17.768Z,908
2023-01-20T00:40:17.494Z,947
2023-01-20T00:42:18.143Z,1006
2023-01-20T00:44:17.508Z,969
2023-01-20T00:46:18.212Z,936
2023-01-20T00:48:17.858Z,930
2023-01-20T00:50:17.472Z,897
2023-01-20T00:52:17.491Z,944
2023-01-20T00:54:18.145Z,897
2023-01-20T00:56:17.752Z,922
2023-01-20T00:58:17.729Z,883
2023-01-20T01:00:17.674Z,817
2023-01-20T01:02:17.502Z,840
2023-01-20T01:04:17.372Z,995
2023-01-20T01:06:17.404Z,852
2023-01-20T01:08:17.420Z,888
2023-01-20T01:10:17.389Z,840
2023-01-20T01:12:17.397Z,841
2023-01-20T01:14:17.941Z,854
2023-01-20T01:16:17.611Z,883
2023-01-20T01:18:17.324Z,867
2023-01-20T01:20:17.997Z,861
2023-01-20T01:22:17.603Z,918
2023-01-20T01:24:17.379Z,838
2023-01-20T01:26:17.885Z,848
2023-01-20T01:28:17.561Z,803
2023-01-20T01:30:18.252Z,830
2023-01-20T01:32:17.919Z,789
2023-01-20T01:34:17.835Z,811
2023-01-20T01:36:17.441Z,893
2023-01-20T01:38:18.013Z,799
2023-01-20T01:40:17.654Z,851
2023-01-20T01:42:17.223Z,799
2023-01-20T01:44:17.796Z,846
2023-01-20T01:46:17.386Z,889
2023-01-20T01:48:18.050Z,848
2023-01-20T01:50:17.656Z,764
2023-01-20T01:52:17.259Z,841
2023-01-20T01:54:17.875Z,806
2023-01-20T01:56:17.519Z,864
2023-01-20T01:58:18.211Z,807
2023-01-20T02:00:17.811Z,879
2023-01-20T02:02:17.406Z,852
2023-01-20T02:04:17.376Z,907
2023-01-20T02:06:17.314Z,848
2023-01-20T02:08:17.703Z,836
2023-01-20T02:10:17.358Z,827
2023-01-20T02:12:17.460Z,814
2023-01-20T02:14:17.362Z,813
2023-01-20T02:16:17.499Z,796
2023-01-20T02:18:17.974Z,863
2023-01-20T02:20:17.541Z,888
2023-01-20T02:22:18.168Z,738
2023-01-20T02:24:17.805Z,857
2023-01-20T02:26:17.394Z,838
2023-01-20T02:28:17.985Z,848
2023-01-20T02:30:17.661Z,780
2023-01-20T02:32:17.532Z,831
2023-01-20T02:34:17.817Z,794
2023-01-20T02:36:17.619Z,849
2023-01-20T02:38:17.477Z,743
2023-01-20T02:40:17.553Z,794
2023-01-20T02:42:17.546Z,732
2023-01-20T02:44:17.823Z,906
2023-01-20T02:46:17.472Z,828
2023-01-20T02:48:17.486Z,843
2023-01-20T02:50:17.964Z,850
2023-01-20T02:52:17.552Z,854
2023-01-20T02:54:18.118Z,818
2023-01-20T02:56:18.255Z,765
2023-01-20T02:58:17.258Z,934
2023-01-20T03:00:17.292Z,814
2023-01-20T03:02:18.029Z,692
2023-01-20T03:04:17.666Z,705
2023-01-20T03:06:17.252Z,816
2023-01-20T03:08:17.885Z,772
2023-01-20T03:10:17.565Z,763
2023-01-20T03:12:18.119Z,766
2023-01-20T03:14:17.875Z,823
2023-01-20T03:16:17.497Z,815
2023-01-20T03:18:17.354Z,798
2023-01-20T03:20:18.016Z,725
2023-01-20T03:22:17.756Z,713
2023-01-20T03:24:17.338Z,701
2023-01-20T03:26:17.920Z,756
2023-01-20T03:28:18.048Z,836
2023-01-20T03:30:17.971Z,769
2023-01-20T03:32:17.561Z,873
2023-01-20T03:34:18.111Z,763
2023-01-20T03:36:17.671Z,723
2023-01-20T03:38:17.364Z,770
2023-01-20T03:40:17.957Z,814
2023-01-20T03:42:17.577Z,766
2023-01-20T03:44:17.807Z,764
2023-01-20T03:46:17.743Z,737
2023-01-20T03:48:18.496Z,858
2023-01-20T03:50:18.249Z,778
2023-01-20T03:52:17.836Z,857
2023-01-20T03:54:17.519Z,729
2023-01-20T03:56:18.130Z,769
2023-01-20T03:58:17.746Z,829
2023-01-20T04:00:17.595Z,761
2023-01-20T04:02:17.742Z,843
2023-01-20T04:04:17.584Z,767
2023-01-20T04:06:17.255Z,794
2023-01-20T04:08:17.850Z,771
2023-01-20T04:10:17.452Z,757
2023-01-20T04:12:18.053Z,853
2023-01-20T04:14:17.695Z,780
2023-01-20T04:16:17.302Z,857
2023-01-20T04:18:17.572Z,771
2023-01-20T04:20:17.233Z,820
2023-01-20T04:22:18.034Z,788
2023-01-20T04:24:17.892Z,768
2023-01-20T04:26:17.410Z,718
2023-01-20T04:28:18.064Z,749
2023-01-20T04:30:17.933Z,766
2023-01-20T04:32:18.001Z,821
2023-01-20T04:34:17.778Z,795
2023-01-20T04:36:17.388Z,806
2023-01-20T04:38:18.073Z,767
2023-01-20T04:40:17.765Z,748
2023-01-20T04:42:17.802Z,728
2023-01-20T04:44:17.601Z,677
2023-01-20T04:46:18.220Z,707
2023-01-20T04:48:18.208Z,828
2023-01-20T04:50:18.063Z,735
2023-01-20T04:52:18.107Z,792
2023-01-20T04:54:18.068Z,832
2023-01-20T04:56:17.997Z,771
2023-01-20T04:58:17.633Z,789
2023-01-20T05:00:17.973Z,716
2023-01-20T05:02:18.019Z,760
2023-01-20T05:04:17.223Z,741
2023-01-20T05:06:17.897Z,721
2023-01-20T05:08:17.631Z,785
2023-01-20T05:10:18.207Z,740
2023-01-20T05:12:17.880Z,782
2023-01-20T05:14:17.648Z,750
2023-01-20T05:16:17.666Z,695
2023-01-20T05:18:17.778Z,683
2023-01-20T05:20:17.607Z,653
2023-01-20T05:22:17.643Z,774
2023-01-20T05:24:17.653Z,682
2023-01-20T05:26:17.307Z,795
2023-01-20T05:28:17.659Z,750
2023-01-20T05:30:17.696Z,782
2023-01-20T05:32:17.565Z,755
2023-01-20T05:34:18.176Z,750
2023-01-20T05:36:17.735Z,770
2023-01-20T05:38:17.364Z,686
2023-01-20T05:40:17.994Z,743
2023-01-20T05:42:17.613Z,839
2023-01-20T05:44:17.249Z,761
2023-01-20T05:46:18.118Z,764
2023-01-20T05:48:17.807Z,807
2023-01-20T05:50:17.456Z,739
2023-01-20T05:52:18.145Z,758
2023-01-20T05:54:17.770Z,734
2023-01-20T05:56:17.365Z,719
2023-01-20T05:58:17.240Z,820
2023-01-20T06:00:17.911Z,788
2023-01-20T06:02:18.181Z,721
2023-01-20T06:04:17.777Z,732
2023-01-20T06:06:18.100Z,769
2023-01-20T06:08:17.735Z,734
2023-01-20T06:10:17.718Z,795
2023-01-20T06:12:17.332Z,716
2023-01-20T06:14:17.934Z,705
2023-01-20T06:16:17.612Z,796
2023-01-20T06:18:17.429Z,680
2023-01-20T06:20:18.010Z,742
2023-01-20T06:22:17.593Z,736
2023-01-20T06:24:18.102Z,773
2023-01-20T06:26:17.768Z,704
2023-01-20T06:28:17.372Z,779
2023-01-20T06:30:17.551Z,789
2023-01-20T06:32:17.900Z,735
2023-01-20T06:34:17.523Z,730
2023-01-20T06:36:17.842Z,801
2023-01-20T06:38:17.803Z,809
2023-01-20T06:40:17.735Z,692
2023-01-20T06:42:17.598Z,759
2023-01-20T06:44:17.622Z,799
2023-01-20T06:46:17.703Z,729
2023-01-20T06:48:17.679Z,663
2023-01-20T06:50:17.559Z,779
2023-01-20T06:52:17.689Z,748
2023-01-20T06:54:18.001Z,740
2023-01-20T06:56:17.648Z,787
2023-01-20T06:58:17.813Z,793
2023-01-20T07:00:17.621Z,821
2023-01-20T07:02:18.437Z,693
2023-01-20T07:04:18.082Z,747
2023-01-20T07:06:17.758Z,780
2023-01-20T07:08:17.640Z,762
2023-01-20T07:10:17.600Z,806
2023-01-20T07:12:17.918Z,781
2023-01-20T07:14:17.811Z,782
2023-01-20T07:16:17.672Z,719
2023-01-20T07:18:17.479Z,725
2023-01-20T07:20:18.131Z,721
2023-01-20T07:22:17.879Z,607
2023-01-20T07:24:18.172Z,663
2023-01-20T07:26:18.157Z,796
2023-01-20T07:28:17.744Z,632
2023-01-20T07:30:17.381Z,751
2023-01-20T07:32:17.984Z,800
2023-01-20T07:34:17.992Z,699
2023-01-20T07:36:17.913Z,774
2023-01-20T07:38:17.616Z,747
2023-01-20T07:40:17.228Z,762
2023-01-20T07:42:18.176Z,747
2023-01-20T07:44:17.958Z,695
2023-01-20T07:46:18.177Z,720
2023-01-20T07:48:17.812Z,753
2023-01-20T07:50:17.414Z,819
2023-01-20T07:52:17.382Z,726
2023-01-20T07:54:17.981Z,760
2023-01-20T07:56:17.529Z,761
2023-01-20T07:58:18.161Z,779
2023-01-20T08:00:17.769Z,808
2023-01-20T08:02:17.699Z,782
2023-01-20T08:04:17.717Z,722
2023-01-20T08:06:17.683Z,776
2023-01-20T08:08:17.311Z,673
2023-01-20T08:10:18.129Z,823
2023-01-20T08:12:17.751Z,759
2023-01-20T08:14:17.336Z,795
2023-01-20T08:16:18.192Z,804
2023-01-20T08:18:17.916Z,811
2023-01-20T08:20:19.640Z,771
2023-01-20T08:22:17.529Z,799
2023-01-20T08:24:18.111Z,800
2023-01-20T08:26:17.737Z,773
2023-01-20T08:28:17.387Z,750
2023-01-20T08:30:17.991Z,748
2023-01-20T08:32:18.080Z,828
2023-01-20T08:34:19.769Z,744
2023-01-20T08:36:24.094Z,727
2023-01-20T08:38:19.453Z,794
2023-01-20T08:40:21.026Z,699
2023-01-20T08:42:19.018Z,724
2023-01-20T08:44:17.567Z,827
2023-01-20T08:46:17.650Z,874
2023-01-20T08:48:18.295Z,850
2023-01-20T08:50:17.387Z,718
2023-01-20T08:52:18.074Z,747
2023-01-20T08:54:19.278Z,746
2023-01-20T08:56:17.902Z,714
2023-01-20T08:58:18.854Z,718
2023-01-20T09:00:19.978Z,683
2023-01-20T09:02:18.557Z,727
2023-01-20T09:04:19.599Z,812
2023-01-20T09:06:22.187Z,783
2023-01-20T09:08:20.888Z,714
2023-01-20T09:10:18.472Z,745
2023-01-20T09:12:19.518Z,752
2023-01-20T09:14:20.061Z,701
2023-01-20T09:16:17.391Z,688
2023-01-20T09:18:17.383Z,698
2023-01-20T09:20:18.072Z,821
2023-01-20T09:22:17.638Z,721
2023-01-20T09:24:17.167Z,761
2023-01-20T09:26:34.113Z,667
2023-01-20T09:28:17.390Z,794
2023-01-20T09:30:17.992Z,706
2023-01-20T09:32:17.558Z,724
2023-01-20T09:34:18.120Z,680
2023-01-20T09:36:17.783Z,715
2023-01-20T09:38:17.602Z,812
2023-01-20T09:40:17.759Z,745
2023-01-20T09:42:17.421Z,734
2023-01-20T09:44:18.043Z,739
2023-01-20T09:46:17.669Z,757
2023-01-20T09:48:17.289Z,703
2023-01-20T09:50:18.171Z,772
2023-01-20T09:52:17.726Z,767
2023-01-20T09:54:17.336Z,740
2023-01-20T09:56:18.283Z,742
2023-01-20T09:58:17.959Z,741
2023-01-20T10:00:17.614Z,776
2023-01-20T10:02:17.223Z,728
2023-01-20T10:04:17.983Z,747
2023-01-20T10:06:17.649Z,754
2023-01-20T10:08:17.319Z,803
2023-01-20T10:10:18.102Z,699
2023-01-20T10:12:17.812Z,782
2023-01-20T10:14:17.481Z,668
2023-01-20T10:16:18.235Z,761
2023-01-20T10:18:17.237Z,794
2023-01-20T10:20:17.956Z,775
2023-01-20T10:22:17.928Z,850
2023-01-20T10:24:17.495Z,794
2023-01-20T10:26:18.079Z,902
2023-01-20T10:28:17.650Z,763
2023-01-20T10:30:17.603Z,710
2023-01-20T10:32:17.404Z,701
2023-01-20T10:34:18.007Z,716
2023-01-20T10:36:17.600Z,691
2023-01-20T10:38:17.184Z,747
2023-01-20T10:40:17.387Z,714
2023-01-20T10:42:18.011Z,672
2023-01-20T10:44:17.631Z,830
2023-01-20T10:46:17.785Z,741
2023-01-20T10:48:17.480Z,789
2023-01-20T10:50:18.170Z,685
2023-01-20T10:52:17.641Z,801
2023-01-20T10:54:17.244Z,774
2023-01-20T10:56:18.082Z,698
2023-01-20T10:58:17.632Z,751
2023-01-20T11:00:17.447Z,784
2023-01-20T11:02:18.154Z,812
2023-01-20T11:04:17.782Z,762
2023-01-20T11:06:17.366Z,792
2023-01-20T11:08:17.261Z,832
2023-01-20T11:10:18.234Z,780
2023-01-20T11:12:17.906Z,732
2023-01-20T11:14:17.472Z,708
2023-01-20T11:16:18.220Z,780
2023-01-20T11:18:17.233Z,751
2023-01-20T11:20:18.163Z,781
2023-01-20T11:22:17.936Z,796
2023-01-20T11:24:17.642Z,748
2023-01-20T11:26:17.213Z,744
2023-01-20T11:28:17.889Z,847
2023-01-20T11:30:17.945Z,754
2023-01-20T11:32:17.814Z,754
2023-01-20T11:34:17.687Z,790
2023-01-20T11:36:17.573Z,845
2023-01-20T11:38:18.130Z,851
2023-01-20T11:40:18.063Z,773
2023-01-20T11:42:17.744Z,777
2023-01-20T11:44:17.499Z,829
2023-01-20T11:46:17.190Z,844
2023-01-20T11:48:18.185Z,867
2023-01-20T11:50:18.078Z,847
2023-01-20T11:52:17.805Z,868
2023-01-20T11:54:17.476Z,890
2023-01-20T11:56:18.154Z,823
2023-01-20T11:58:17.776Z,829
2023-01-20T12:00:17.748Z,818
2023-01-20T12:02:17.453Z,856
2023-01-20T12:04:18.227Z,773
2023-01-20T12:06:18.065Z,870
2023-01-20T12:08:18.179Z,824
2023-01-20T12:10:18.154Z,867
2023-01-20T12:12:18.078Z,772
2023-01-20T12:14:17.694Z,812
2023-01-20T12:16:17.308Z,772
2023-01-20T12:18:17.267Z,830
2023-01-20T12:20:17.794Z,967
2023-01-20T12:22:17.550Z,863
2023-01-20T12:24:17.747Z,836
2023-01-20T12:26:17.316Z,895
2023-01-20T12:28:17.990Z,891
2023-01-20T12:30:20.209Z,903
2023-01-20T12:32:17.964Z,828
2023-01-20T12:34:17.553Z,888
2023-01-20T12:36:17.258Z,758
2023-01-20T12:38:17.955Z,828
2023-01-20T12:40:18.012Z,1056
2023-01-20T12:42:18.027Z,959
2023-01-20T12:44:17.604Z,887
2023-01-20T12:46:18.201Z,893
2023-01-20T12:48:17.849Z,911
2023-01-20T12:50:17.750Z,968
2023-01-20T12:52:17.810Z,899
2023-01-20T12:54:17.259Z,874
2023-01-20T12:56:18.003Z,976
2023-01-20T12:58:17.614Z,1000
2023-01-20T13:00:18.635Z,931
2023-01-20T13:02:17.336Z,850
2023-01-20T13:04:18.130Z,864
2023-01-20T13:06:17.690Z,916
2023-01-20T13:08:18.174Z,852
2023-01-20T13:10:18.473Z,924
2023-01-20T13:12:18.237Z,877
2023-01-20T13:14:17.242Z,923
2023-01-20T13:16:18.030Z,996
2023-01-20T13:18:17.851Z,930
2023-01-20T13:20:17.749Z,905
2023-01-20T13:22:17.590Z,943
2023-01-20T13:24:17.210Z,971
2023-01-20T13:26:17.795Z,984
2023-01-20T13:28:17.479Z,883
2023-01-20T13:30:17.622Z,904
2023-01-20T13:32:17.326Z,1018
2023-01-20T13:34:17.979Z,939
2023-01-20T13:36:17.566Z,945
2023-01-20T13:38:17.786Z,918
2023-01-20T13:40:17.427Z,927
2023-01-20T13:42:18.026Z,900
2023-01-20T13:44:17.673Z,919
2023-01-20T13:46:17.719Z,948
2023-01-20T13:48:17.589Z,986
2023-01-20T13:50:18.144Z,953
2023-01-20T13:52:17.783Z,896
2023-01-20T13:54:17.406Z,961
2023-01-20T13:56:17.381Z,948
2023-01-20T13:58:17.981Z,948
2023-01-20T14:00:17.784Z,946
2023-01-20T14:02:18.216Z,902
2023-01-20T14:04:17.800Z,1000
2023-01-20T14:06:17.756Z,941
2023-01-20T14:08:17.502Z,1072
2023-01-20T14:10:18.469Z,971
2023-01-20T14:12:17.363Z,920
2023-01-20T14:14:18.029Z,978
2023-01-20T14:16:17.712Z,1070
2023-01-20T14:18:17.520Z,1119
2023-01-20T14:20:18.262Z,1234
2023-01-20T14:22:17.882Z,1104
2023-01-20T14:24:17.893Z,973
2023-01-20T14:26:17.472Z,919
2023-01-20T14:28:18.049Z,866
2023-01-20T14:30:18.322Z,1036
2023-01-20T14:32:20.020Z,993
2023-01-20T14:34:17.683Z,886
2023-01-20T14:36:17.841Z,957
2023-01-20T14:38:17.503Z,888
2023-01-20T14:40:18.489Z,898
2023-01-20T14:42:17.262Z,836
2023-01-20T14:44:17.856Z,997
2023-01-20T14:46:17.971Z,1046
2023-01-20T14:48:32.847Z,1960
2023-01-20T14:50:18.163Z,1028
2023-01-20T14:52:18.042Z,1096
2023-01-20T14:54:18.184Z,926
2023-01-20T14:56:17.803Z,1352
2023-01-20T14:58:17.443Z,1166
2023-01-20T15:00:18.418Z,1417
2023-01-20T15:02:17.830Z,1228
2023-01-20T15:04:18.048Z,1071
2023-01-20T15:06:17.754Z,948
2023-01-20T15:08:17.427Z,1718
2023-01-20T15:10:18.437Z,1349
2023-01-20T15:12:17.219Z,873
2023-01-20T15:14:18.285Z,913
2023-01-20T15:16:18.020Z,863
2023-01-20T15:18:17.786Z,744
2023-01-20T15:20:17.532Z,861
2023-01-20T15:22:17.225Z,843
2023-01-20T15:24:17.725Z,896
2023-01-20T15:26:17.621Z,876
2023-01-20T15:28:17.699Z,841
2023-01-20T15:30:17.778Z,858
2023-01-20T15:32:17.518Z,850
2023-01-20T15:34:18.131Z,850
2023-01-20T15:36:18.025Z,897
2023-01-20T15:38:17.668Z,878
2023-01-20T15:40:17.698Z,851
2023-01-20T15:42:17.439Z,761
2023-01-20T15:44:17.611Z,883
2023-01-20T15:46:17.310Z,839
2023-01-20T15:48:17.919Z,844
2023-01-20T15:50:17.946Z,895
2023-01-20T15:52:17.610Z,893
2023-01-20T15:54:17.226Z,793
2023-01-20T15:56:18.202Z,748
2023-01-20T15:58:17.777Z,770
2023-01-20T16:00:17.826Z,664
2023-01-20T16:02:17.693Z,784
2023-01-20T16:04:17.289Z,758
2023-01-20T16:06:18.072Z,766
2023-01-20T16:08:17.887Z,796
2023-01-20T16:10:17.767Z,737
2023-01-20T16:12:17.489Z,826
2023-01-20T16:14:18.167Z,775
2023-01-20T16:16:17.202Z,717
2023-01-20T16:18:18.171Z,781
2023-01-20T16:20:18.000Z,773
2023-01-20T16:22:18.099Z,818
2023-01-20T16:24:17.816Z,776
2023-01-20T16:26:17.418Z,768
2023-01-20T16:28:18.292Z,821
2023-01-20T16:30:18.244Z,868
2023-01-20T16:32:20.331Z,855
2023-01-20T16:34:17.868Z,825
2023-01-20T16:36:17.711Z,841
2023-01-20T16:38:17.276Z,821
2023-01-20T16:40:18.441Z,712
2023-01-20T16:42:18.102Z,788
2023-01-20T16:44:17.754Z,823
2023-01-20T16:46:17.365Z,738
2023-01-20T16:48:18.008Z,757
2023-01-20T16:50:17.986Z,762
2023-01-20T16:52:17.792Z,696
2023-01-20T16:54:17.626Z,872
2023-01-20T16:56:17.224Z,806
2023-01-20T16:58:17.880Z,895
2023-01-20T17:00:19.046Z,838
2023-01-20T17:02:18.105Z,825
2023-01-20T17:04:17.777Z,803
2023-01-20T17:06:18.159Z,784
2023-01-20T17:08:17.986Z,790
2023-01-20T17:10:17.912Z,839
2023-01-20T17:12:17.914Z,809
2023-01-20T17:14:17.551Z,835
2023-01-20T17:16:18.129Z,848
2023-01-20T17:18:17.919Z,813
2023-01-20T17:20:17.676Z,768
2023-01-20T17:22:17.608Z,783
2023-01-20T17:24:17.268Z,745
2023-01-20T17:26:17.951Z,725
2023-01-20T17:28:17.493Z,666
2023-01-20T17:30:18.392Z,828
2023-01-20T17:32:17.489Z,856
2023-01-20T17:34:18.095Z,855
2023-01-20T17:36:17.813Z,841
2023-01-20T17:38:17.485Z,704
2023-01-20T17:40:17.455Z,812
2023-01-20T17:42:17.720Z,789
2023-01-20T17:44:17.443Z,805
2023-01-20T17:46:18.250Z,715
2023-01-20T17:48:17.965Z,717
2023-01-20T17:50:17.860Z,840
2023-01-20T17:52:17.674Z,785
2023-01-20T17:54:17.337Z,789
2023-01-20T17:56:17.946Z,757
2023-01-20T17:58:17.525Z,654
2023-01-20T18:00:18.460Z,691
2023-01-20T18:02:18.058Z,706
2023-01-20T18:04:17.811Z,709
2023-01-20T18:06:17.656Z,772
2023-01-20T18:08:17.782Z,742
2023-01-20T18:10:17.681Z,721
2023-01-20T18:12:17.570Z,665
2023-01-20T18:14:17.864Z,668
2023-01-20T18:16:17.459Z,707
2023-01-20T18:18:17.210Z,654
2023-01-20T18:20:18.131Z,717
2023-01-20T18:22:17.862Z,634
2023-01-20T18:24:17.475Z,705
2023-01-20T18:26:17.305Z,703
2023-01-20T18:28:17.936Z,730
2023-01-20T18:30:17.805Z,759
2023-01-20T18:32:17.578Z,670
2023-01-20T18:34:17.415Z,742
2023-01-20T18:36:17.979Z,687
2023-01-20T18:38:17.563Z,755
2023-01-20T18:40:18.450Z,700
2023-01-20T18:42:17.466Z,705
2023-01-20T18:44:17.736Z,715
2023-01-20T18:46:18.275Z,721
2023-01-20T18:48:17.977Z,670
2023-01-20T18:50:17.917Z,695
2023-01-20T18:52:17.676Z,682
2023-01-20T18:54:17.643Z,714
2023-01-20T18:56:17.199Z,804
2023-01-20T18:58:17.761Z,761
2023-01-20T19:00:17.339Z,733
2023-01-20T19:02:17.935Z,723
2023-01-20T19:04:17.582Z,753
2023-01-20T19:06:18.183Z,746
2023-01-20T19:08:17.770Z,721
2023-01-20T19:10:17.886Z,692
2023-01-20T19:12:17.655Z,790
2023-01-20T19:14:17.272Z,751
2023-01-20T19:16:18.103Z,783
2023-01-20T19:18:17.797Z,715
2023-01-20T19:20:18.659Z,727
2023-01-20T19:22:17.384Z,783
2023-01-20T19:24:18.032Z,700
2023-01-20T19:26:17.608Z,735
2023-01-20T19:28:17.619Z,798
2023-01-20T19:30:17.889Z,671
2023-01-20T19:32:17.650Z,810
2023-01-20T19:34:17.252Z,749
2023-01-20T19:36:17.829Z,796
2023-01-20T19:38:17.627Z,731
2023-01-20T19:40:17.591Z,788
2023-01-20T19:42:17.343Z,840
2023-01-20T19:44:17.727Z,811
2023-01-20T19:46:17.426Z,819
2023-01-20T19:48:18.237Z,731
2023-01-20T19:50:18.204Z,800
2023-01-20T19:52:18.024Z,766
2023-01-20T19:54:18.171Z,763
2023-01-20T19:56:17.739Z,808
2023-01-20T19:58:17.377Z,685
2023-01-20T20:00:18.322Z,687
2023-01-20T20:02:17.989Z,777
2023-01-20T20:04:17.642Z,766
2023-01-20T20:06:17.221Z,774
2023-01-20T20:08:17.842Z,745
2023-01-20T20:10:17.744Z,730
2023-01-20T20:12:17.778Z,753
2023-01-20T20:14:17.565Z,814
2023-01-20T20:16:17.561Z,597
2023-01-20T20:18:17.378Z,701
2023-01-20T20:20:18.381Z,794
2023-01-20T20:22:18.139Z,799
2023-01-20T20:24:17.757Z,812
2023-01-20T20:26:17.346Z,714
2023-01-20T20:28:17.202Z,784
2023-01-20T20:30:17.919Z,828
2023-01-20T20:32:17.531Z,793
2023-01-20T20:34:18.611Z,753
2023-01-20T20:36:17.385Z,806
2023-01-20T20:38:17.295Z,821
2023-01-20T20:40:17.557Z,773
2023-01-20T20:42:17.311Z,707
2023-01-20T20:44:17.861Z,732
2023-01-20T20:46:17.524Z,804
2023-01-20T20:48:18.187Z,795
2023-01-20T20:50:18.325Z,755
2023-01-20T20:52:18.160Z,769
2023-01-20T20:54:17.792Z,769
2023-01-20T20:56:17.394Z,821
2023-01-20T20:58:18.041Z,792
2023-01-20T21:00:17.805Z,828
2023-01-20T21:02:17.508Z,799
2023-01-20T21:04:18.177Z,715
2023-01-20T21:06:17.766Z,793
2023-01-20T21:08:17.383Z,822
2023-01-20T21:10:18.353Z,736
2023-01-20T21:12:18.065Z,786
2023-01-20T21:14:17.690Z,741
2023-01-20T21:16:17.413Z,785
2023-01-20T21:18:18.209Z,740
2023-01-20T21:20:18.045Z,761
2023-01-20T21:22:17.815Z,842
2023-01-20T21:24:17.264Z,770
2023-01-20T21:26:17.871Z,685
2023-01-20T21:28:17.899Z,778
2023-01-20T21:30:17.852Z,791
2023-01-20T21:32:17.650Z,816
2023-01-20T21:34:17.239Z,684
2023-01-20T21:36:17.837Z,863
2023-01-20T21:38:17.372Z,753
2023-01-20T21:40:18.605Z,755
2023-01-20T21:42:17.311Z,736
2023-01-20T21:44:17.862Z,792
2023-01-20T21:46:17.492Z,815
2023-01-20T21:48:18.135Z,814
2023-01-20T21:50:18.148Z,731
2023-01-20T21:52:17.880Z,776
2023-01-20T21:54:17.498Z,850
2023-01-20T21:56:18.160Z,831
2023-01-20T21:58:17.743Z,786
2023-01-20T22:00:17.778Z,742
2023-01-20T22:02:17.564Z,732
2023-01-20T22:04:17.232Z,817
2023-01-20T22:06:17.786Z,701
2023-01-20T22:08:17.409Z,762
2023-01-20T22:10:18.222Z,783
2023-01-20T22:12:18.014Z,706
2023-01-20T22:14:17.662Z,687
2023-01-20T22:16:17.257Z,814
2023-01-20T22:18:17.979Z,801
2023-01-20T22:20:17.871Z,648
2023-01-20T22:22:17.707Z,815
2023-01-20T22:24:22.308Z,769
2023-01-20T22:26:17.414Z,723
2023-01-20T22:28:17.352Z,704
2023-01-20T22:30:17.647Z,750
2023-01-20T22:32:17.861Z,773
2023-01-20T22:34:17.532Z,700
2023-01-20T22:36:17.978Z,696
2023-01-20T22:38:18.113Z,731
2023-01-20T22:40:18.042Z,712
2023-01-20T22:42:17.845Z,708
2023-01-20T22:44:17.904Z,803
2023-01-20T22:46:17.738Z,745
2023-01-20T22:48:17.757Z,759
2023-01-20T22:50:17.691Z,702
2023-01-20T22:52:17.457Z,807
2023-01-20T22:54:17.351Z,787
2023-01-20T22:56:18.134Z,717
2023-01-20T22:58:17.184Z,704
2023-01-20T23:00:19.857Z,843
2023-01-20T23:02:17.679Z,756
2023-01-20T23:04:17.775Z,713
2023-01-20T23:06:17.598Z,707
2023-01-20T23:08:17.499Z,812
2023-01-20T23:10:18.404Z,794
2023-01-20T23:12:17.433Z,738
2023-01-20T23:14:18.076Z,670
2023-01-20T23:16:17.424Z,802
2023-01-20T23:18:17.609Z,800
2023-01-20T23:20:17.712Z,800
2023-01-20T23:22:18.115Z,744
2023-01-20T23:24:18.213Z,694
2023-01-20T23:26:18.162Z,758
2023-01-20T23:28:17.747Z,809
2023-01-20T23:30:18.110Z,830
2023-01-20T23:32:17.961Z,741
2023-01-20T23:34:17.966Z,739
2023-01-20T23:36:17.581Z,739
2023-01-20T23:38:18.217Z,754
2023-01-20T23:40:18.421Z,782
2023-01-20T23:42:18.847Z,761
2023-01-20T23:44:17.457Z,723
2023-01-20T23:46:17.388Z,743
2023-01-20T23:48:18.125Z,746
2023-01-20T23:50:18.030Z,762
2023-01-20T23:52:17.735Z,676
2023-01-20T23:54:17.378Z,732
2023-01-20T23:56:18.127Z,677
2023-01-20T23:58:17.741Z,669
